Time,TemperatureF,DewpointF,PressureIn,WindDirection,WindDirectionDegrees,WindSpeedMPH,WindSpeedGustMPH,Humidity,HourlyPrecipIn,Conditions,Clouds,dailyrainin,SoftwareType,DateUTC
2013-02-20 00:00:00,16.9,9.4,29.95,SW,225,9.0,0.0,72,0.00,RA,RA,0.00,WeatherDisplay:10.37,2013-02-20 05:00:00,
2013-02-20 00:05:00,16.9,9.4,29.95,North,0,12.5,17.3,72,0.00,RA,,0.00,WeatherDisplay:10.37,2013-02-20 05:05:00,
2013-02-20 00:10:00,16.9,9.4,29.95,North,0,6.8,15.0,72,0.00,CLR,,0.00,WeatherDisplay:10.37,2013-02-20 05:10:00,
2013-02-20 00:15:00,16.9,9.4,29.95,West,270,10.4,21.9,72,0.00,CLR,,0.00,WeatherDisplay:10.37,2013-02-20 05:15:00,
2013-02-20 00:20:00,16.9,9.4,29.95,West,270,8.1,15.0,72,0.00,CLR,,0.00,WeatherDisplay:10.37,2013-02-20 05:20:00,
2013-02-20 00:25:00,17.1,9.6,29.95,West,270,4.0,9.2,72,0.00,CLR,,0.00,WeatherDisplay:10.37,2013-02-20 05:25:00,
2013-02-20 00:30:00,17.1,9.6,29.95,SW,225,14.5,14.5,72,0.00,CLR,,0.00,WeatherDisplay:10.37,2013-02-20 05:30:00,
2013-02-20 00:35:00,17.1,9.3,29.95,SW,225,6.4,12.7,71,0.00,CLR,,0.00,WeatherDisplay:10.37,2013-02-20 05:35:00,
2013-02-20 00:40:00,17.1,8.6,29.95,South,180,5.7,15.0,69,0.00,CLR,,0.00,WeatherDisplay:10.37,2013-02-20 05:40:00,
2013-02-20 00:45:00,17.1,8.6,29.96,SW,225,8.8,12.7,69,0.00,CLR,,0.00,WeatherDisplay:10.37,2013-02-20 05:45:00,
2013-02-20 00:50:00,17.1,8.6,29.96,SW,225,6.4,12.7,69,0.00,CLR,,0.00,WeatherDisplay:10.37,2013-02-20 05:50:00,
2013-02-20 00:55:00,17.1,8.3,29.97,SW,225,6.4,10.4,68,0.00,CLR,,0.00,WeatherDisplay:10.37,2013-02-20 05:55:00,
2013-02-20 01:00:00,16.9,8.1,29.97,WSW,248,9.7,20.7,68,0.00,CLR,,0.00,WeatherDisplay:10.37,2013-02-20 06:00:00,
2013-02-20 01:05:00,16.9,8.5,29.97,SW,225,8.1,12.7,69,0.00,CLR,,0.00,WeatherDisplay:10.37,2013-02-20 06:05:00,
2013-02-20 01:10:00,16.7,8.6,29.98,SW,225,10.4,12.7,70,0.00,CLR,,0.00,WeatherDisplay:10.37,2013-02-20 06:10:00,
2013-02-20 01:15:00,16.7,8.3,29.98,SW,225,5.7,16.1,69,0.00,CLR,,0.00,WeatherDisplay:10.37,2013-02-20 06:15:00,
2013-02-20 01:20:00,16.7,8.0,29.99,SW,225,8.8,11.5,68,0.00,CLR,,0.00,WeatherDisplay:10.37,2013-02-20 06:20:00,
2013-02-20 01:25:00,16.7,7.3,29.99,South,180,8.8,16.1,66,0.00,CLR,,0.00,WeatherDisplay:10.37,2013-02-20 06:25:00,
2013-02-20 01:30:00,16.9,7.5,30.00,South,180,5.7,9.2,66,0.00,CLR,,0.00,WeatherDisplay:10.37,2013-02-20 06:30:00,
2013-02-20 01:35:00,16.9,7.8,30.00,South,180,1.7,5.8,67,0.00,CLR,,0.00,WeatherDisplay:10.37,2013-02-20 06:35:00,
2013-02-20 01:40:00,16.9,8.1,30.00,South,180,4.7,10.4,68,0.00,CLR,,0.00,WeatherDisplay:10.37,2013-02-20 06:40:00,
2013-02-20 01:45:00,17.1,8.3,30.00,SW,225,8.8,12.7,68,0.00,CLR,,0.00,WeatherDisplay:10.37,2013-02-20 06:45:00,
2013-02-20 01:50:00,17.1,8.3,30.01,North,0,13.7,20.7,68,0.00,CLR,,0.00,WeatherDisplay:10.37,2013-02-20 06:50:00,
2013-02-20 01:55:00,17.1,8.6,30.02,NW,315,4.7,8.1,69,0.00,CLR,,0.00,WeatherDisplay:10.37,2013-02-20 06:55:00,
2013-02-20 02:00:00,17.1,9.0,30.03,NW,315,8.8,15.0,70,0.00,CLR,,0.00,WeatherDisplay:10.37,2013-02-20 07:00:00,
2013-02-20 02:05:00,17.1,9.6,30.03,NW,315,5.7,6.9,72,0.00,CLR,,0.00,WeatherDisplay:10.37,2013-02-20 07:05:00,
2013-02-20 02:11:00,17.2,9.8,30.03,North,0,9.7,12.7,72,0.00,CLR,,0.00,WeatherDisplay:10.37,2013-02-20 07:11:00,
2013-02-20 02:16:00,17.2,9.8,30.03,North,0,8.8,9.2,72,0.00,CLR,,0.00,WeatherDisplay:10.37,2013-02-20 07:16:00,
2013-02-20 02:21:00,17.4,9.9,30.04,West,270,6.4,12.7,72,0.00,CLR,,0.00,WeatherDisplay:10.37,2013-02-20 07:21:00,
2013-02-20 02:26:00,17.2,9.4,30.04,West,270,8.1,16.1,71,0.00,CLR,,0.00,WeatherDisplay:10.37,2013-02-20 07:26:00,
2013-02-20 02:31:00,17.2,9.8,30.04,SW,225,5.7,12.7,72,0.00,CLR,,0.00,WeatherDisplay:10.37,2013-02-20 07:31:00,
2013-02-20 02:36:00,17.2,9.8,30.05,West,270,4.0,11.5,72,0.00,CLR,,0.00,WeatherDisplay:10.37,2013-02-20 07:36:00,
2013-02-20 02:41:00,17.4,9.9,30.05,SW,225,5.7,9.2,72,0.00,CLR,,0.00,WeatherDisplay:10.37,2013-02-20 07:41:00,
2013-02-20 02:46:00,17.4,9.3,30.05,WSW,248,11.4,17.3,70,0.00,CLR,,0.00,WeatherDisplay:10.37,2013-02-20 07:46:00,
2013-02-20 02:51:00,17.2,9.4,30.05,SW,225,6.4,13.8,71,0.00,CLR,,0.00,WeatherDisplay:10.37,2013-02-20 07:51:00,
2013-02-20 02:56:00,17.2,9.8,30.05,South,180,6.4,15.0,72,0.00,CLR,,0.00,WeatherDisplay:10.37,2013-02-20 07:56:00,
2013-02-20 03:01:00,17.2,9.8,30.06,SSW,202,5.7,11.5,72,0.00,CLR,,0.00,WeatherDisplay:10.37,2013-02-20 08:01:00,
2013-02-20 03:06:00,17.2,9.8,30.06,SE,135,11.7,15.0,72,0.00,CLR,,0.00,WeatherDisplay:10.37,2013-02-20 08:06:00,
2013-02-20 03:11:00,17.4,9.9,30.06,South,180,11.4,19.6,72,0.00,CLR,,0.00,WeatherDisplay:10.37,2013-02-20 08:11:00,
2013-02-20 03:16:00,17.4,9.6,30.06,South,180,8.8,12.7,71,0.00,CLR,,0.00,WeatherDisplay:10.37,2013-02-20 08:16:00,
2013-02-20 03:21:00,17.4,9.6,30.06,South,180,8.8,12.7,71,0.00,CLR,,0.00,WeatherDisplay:10.37,2013-02-20 08:21:00,
2013-02-20 03:26:00,17.2,8.8,30.06,North,0,11.7,19.6,69,0.00,CLR,,0.00,WeatherDisplay:10.37,2013-02-20 08:26:00,
2013-02-20 03:31:00,17.2,9.1,30.07,North,0,6.8,13.8,70,0.00,CLR,,0.00,WeatherDisplay:10.37,2013-02-20 08:31:00,
2013-02-20 03:36:00,17.2,9.1,30.07,SW,225,8.1,15.0,70,0.00,CLR,,0.00,WeatherDisplay:10.37,2013-02-20 08:36:00,
2013-02-20 03:41:00,17.2,8.8,30.08,WSW,248,13.8,20.7,69,0.00,CLR,,0.00,WeatherDisplay:10.37,2013-02-20 08:41:00,
2013-02-20 03:46:00,17.2,8.5,30.08,SW,225,9.7,15.0,68,0.00,CLR,,0.00,WeatherDisplay:10.37,2013-02-20 08:46:00,
2013-02-20 03:51:00,17.2,8.2,30.08,SW,225,13.8,19.6,67,0.00,CLR,,0.00,WeatherDisplay:10.37,2013-02-20 08:51:00,
2013-02-20 03:56:00,17.2,8.2,30.08,NW,315,9.7,12.7,67,0.00,CLR,,0.00,WeatherDisplay:10.37,2013-02-20 08:56:00,
2013-02-20 04:01:00,17.1,8.0,30.08,West,270,11.4,17.3,67,0.00,CLR,,0.00,WeatherDisplay:10.37,2013-02-20 09:01:00,
2013-02-20 04:06:00,17.1,8.3,30.09,SW,225,10.4,15.0,68,0.00,CLR,,0.00,WeatherDisplay:10.37,2013-02-20 09:06:00,
2013-02-20 04:11:00,17.1,8.3,30.09,West,270,11.4,16.1,68,0.00,CLR,,0.00,WeatherDisplay:10.37,2013-02-20 09:11:00,
2013-02-20 04:16:00,16.9,8.8,30.09,West,270,8.8,10.4,70,0.00,CLR,,0.00,WeatherDisplay:10.37,2013-02-20 09:16:00,
2013-02-20 04:21:00,16.9,9.1,30.09,SW,225,5.7,12.7,71,0.00,CLR,,0.00,WeatherDisplay:10.37,2013-02-20 09:21:00,
2013-02-20 04:26:00,16.7,9.2,30.09,West,270,5.7,13.8,72,0.00,CLR,,0.00,WeatherDisplay:10.37,2013-02-20 09:26:00,
2013-02-20 04:27:00,22.6,16.8,30.28,NNW,346,6.0,0.0,78,0.00,CLR,CLR,0.00,WeatherDisplay:10.37,2013-02-20 09:27:00,
2013-02-20 04:28:00,22.6,16.8,30.28,NNW,346,6.0,0.0,78,0.00,CLR,CLR,0.00,WeatherDisplay:10.37,2013-02-20 09:28:00,
2013-02-20 04:29:00,22.6,16.8,30.28,NNW,346,6.0,0.0,78,0.00,CLR,CLR,0.00,WeatherDisplay:10.37,2013-02-20 09:29:00,
2013-02-20 04:30:00,22.6,16.8,30.28,NNW,346,6.0,0.0,78,0.00,CLR,CLR,0.00,WeatherDisplay:10.37,2013-02-20 09:30:00,
2013-02-20 04:31:00,16.9,9.4,30.09,West,270,4.0,23.0,72,0.00,CLR,,0.00,WeatherDisplay:10.37,2013-02-20 09:31:00,
2013-02-20 04:36:00,16.9,9.1,30.09,WSW,248,4.7,12.7,71,0.00,CLR,,0.00,WeatherDisplay:10.37,2013-02-20 09:36:00,
2013-02-20 04:41:00,17.1,9.0,30.09,SW,225,9.7,18.4,70,0.00,CLR,,0.00,WeatherDisplay:10.37,2013-02-20 09:41:00,
2013-02-20 04:46:00,17.1,8.6,30.10,NE,45,9.7,21.9,69,0.00,CLR,,0.00,WeatherDisplay:10.37,2013-02-20 09:46:00,
2013-02-20 04:51:00,17.1,8.6,30.10,NE,45,7.7,15.0,69,0.00,CLR,,0.00,WeatherDisplay:10.37,2013-02-20 09:51:00,
2013-02-20 04:56:00,17.1,8.3,30.10,South,180,8.8,12.7,68,0.00,CLR,,0.00,WeatherDisplay:10.37,2013-02-20 09:56:00,
2013-02-20 05:01:00,17.1,8.0,30.11,NE,45,4.8,10.4,67,0.00,CLR,,0.00,WeatherDisplay:10.37,2013-02-20 10:01:00,
2013-02-20 05:06:00,17.1,8.0,30.11,NE,45,4.8,10.4,67,0.00,CLR,,0.00,WeatherDisplay:10.37,2013-02-20 10:06:00,
2013-02-20 05:11:00,17.1,8.3,30.11,NE,45,8.8,20.7,68,0.00,CLR,,0.00,WeatherDisplay:10.37,2013-02-20 10:11:00,
2013-02-20 05:16:00,17.1,8.3,30.11,NE,45,8.8,18.4,68,0.00,CLR,,0.00,WeatherDisplay:10.37,2013-02-20 10:16:00,
2013-02-20 05:21:00,17.1,8.6,30.11,NE,45,5.7,13.8,69,0.00,CLR,,0.00,WeatherDisplay:10.37,2013-02-20 10:21:00,
2013-02-20 05:26:00,17.1,8.6,30.12,North,0,11.7,17.3,69,0.00,CLR,,0.00,WeatherDisplay:10.37,2013-02-20 10:26:00,
2013-02-20 05:31:00,17.1,9.0,30.12,North,0,4.8,11.5,70,0.00,CLR,,0.00,WeatherDisplay:10.37,2013-02-20 10:31:00,
2013-02-20 05:36:00,17.2,9.1,30.13,SW,225,4.7,17.3,70,0.00,CLR,,0.00,WeatherDisplay:10.37,2013-02-20 10:36:00,
2013-02-20 05:41:00,17.2,8.8,30.12,West,270,4.0,12.7,69,0.00,CLR,,0.00,WeatherDisplay:10.37,2013-02-20 10:41:00,
2013-02-20 05:46:00,17.2,8.5,30.13,SW,225,9.7,13.8,68,0.00,CLR,,0.00,WeatherDisplay:10.37,2013-02-20 10:46:00,
2013-02-20 05:51:00,17.4,8.3,30.13,SW,225,9.7,11.5,67,0.00,CLR,,0.00,WeatherDisplay:10.37,2013-02-20 10:51:00,
2013-02-20 05:56:00,17.4,8.3,30.14,West,270,8.8,12.7,67,0.00,CLR,,0.00,WeatherDisplay:10.37,2013-02-20 10:56:00,
2013-02-20 06:01:00,17.4,8.0,30.14,SW,225,5.7,12.7,66,0.00,CLR,,0.00,WeatherDisplay:10.37,2013-02-20 11:01:00,
2013-02-20 06:06:00,17.4,8.0,30.14,SW,225,7.4,17.3,66,0.00,CLR,,0.00,WeatherDisplay:10.37,2013-02-20 11:06:00,
2013-02-20 06:11:00,17.2,8.2,30.14,West,270,4.7,6.9,67,0.00,CLR,,0.00,WeatherDisplay:10.37,2013-02-20 11:11:00,
2013-02-20 06:16:00,17.2,8.5,30.14,SW,225,5.7,11.5,68,0.00,CLR,,0.00,WeatherDisplay:10.37,2013-02-20 11:16:00,
2013-02-20 06:21:00,17.4,8.7,30.14,West,270,7.4,12.7,68,0.00,CLR,,0.00,WeatherDisplay:10.37,2013-02-20 11:21:00,
2013-02-20 06:26:00,17.4,8.7,30.14,SW,225,8.1,14.5,68,0.00,CLR,,0.00,WeatherDisplay:10.37,2013-02-20 11:26:00,
2013-02-20 06:31:00,17.4,8.7,30.15,West,270,10.4,17.3,68,0.00,CLR,,0.00,WeatherDisplay:10.37,2013-02-20 11:31:00,
2013-02-20 06:36:00,17.2,8.8,30.15,NW,315,7.4,9.2,69,0.00,CLR,,0.00,WeatherDisplay:10.37,2013-02-20 11:36:00,
2013-02-20 06:41:00,17.2,9.1,30.14,SW,225,8.8,15.0,70,0.00,CLR,,0.00,WeatherDisplay:10.37,2013-02-20 11:41:00,
2013-02-20 06:46:00,17.4,9.3,30.15,SW,225,5.7,13.8,70,0.00,CLR,,0.00,WeatherDisplay:10.37,2013-02-20 11:46:00,
2013-02-20 06:51:00,17.4,9.3,30.15,West,270,8.1,11.5,70,0.00,CLR,,0.00,WeatherDisplay:10.37,2013-02-20 11:51:00,
2013-02-20 06:56:00,17.2,8.8,30.15,NW,315,5.7,13.8,69,0.00,CLR,,0.00,WeatherDisplay:10.37,2013-02-20 11:56:00,
2013-02-20 07:01:00,17.2,8.8,30.15,West,270,9.7,15.0,69,0.00,CLR,,0.00,WeatherDisplay:10.37,2013-02-20 12:01:00,
2013-02-20 07:06:00,17.2,8.8,30.15,West,270,9.7,15.4,69,0.00,CLR,,0.00,WeatherDisplay:10.37,2013-02-20 12:06:00,
2013-02-20 07:11:00,17.4,8.7,30.16,West,270,7.4,12.7,68,0.00,CLR,,0.00,WeatherDisplay:10.37,2013-02-20 12:11:00,
2013-02-20 07:16:00,17.4,8.7,30.16,NNW,338,4.0,12.7,68,0.00,CLR,,0.00,WeatherDisplay:10.37,2013-02-20 12:16:00,
2013-02-20 07:21:00,17.4,8.7,30.16,South,180,6.4,9.2,68,0.00,CLR,,0.00,WeatherDisplay:10.37,2013-02-20 12:21:00,
2013-02-20 07:26:00,17.4,8.7,30.17,East,90,6.8,10.4,68,0.00,CLR,,0.00,WeatherDisplay:10.37,2013-02-20 12:26:00,
2013-02-20 07:31:00,17.6,8.8,30.16,West,270,8.1,16.1,68,0.00,CLR,,0.00,WeatherDisplay:10.37,2013-02-20 12:31:00,
2013-02-20 07:37:00,17.6,8.8,30.17,SW,225,9.7,12.7,68,0.00,CLR,,0.00,WeatherDisplay:10.37,2013-02-20 12:37:00,
2013-02-20 07:42:00,17.6,8.8,30.17,North,0,9.7,21.9,68,0.00,CLR,,0.00,WeatherDisplay:10.37,2013-02-20 12:42:00,
2013-02-20 07:47:00,17.8,8.7,30.17,West,270,4.0,12.7,67,0.00,CLR,,0.00,WeatherDisplay:10.37,2013-02-20 12:47:00,
2013-02-20 07:52:00,17.8,8.7,30.17,West,270,4.7,9.2,67,0.00,CLR,,0.00,WeatherDisplay:10.37,2013-02-20 12:52:00,
2013-02-20 07:57:00,17.8,9.0,30.16,West,270,4.7,16.1,68,0.00,CLR,,0.00,WeatherDisplay:10.37,2013-02-20 12:57:00,
2013-02-20 08:02:00,17.8,9.3,30.16,SW,225,4.7,13.8,69,0.00,CLR,,0.00,WeatherDisplay:10.37,2013-02-20 13:02:00,
2013-02-20 08:07:00,18.0,9.8,30.16,SE,135,8.8,13.8,70,0.00,CLR,,0.00,WeatherDisplay:10.37,2013-02-20 13:07:00,
2013-02-20 08:12:00,18.1,10.0,30.16,West,270,9.7,13.8,70,0.00,CLR,,0.00,WeatherDisplay:10.37,2013-02-20 13:12:00,
2013-02-20 08:17:00,18.1,10.3,30.16,West,270,8.8,15.0,71,0.00,CLR,,0.00,WeatherDisplay:10.37,2013-02-20 13:17:00,
2013-02-20 08:22:00,18.3,10.5,30.16,West,270,4.0,15.0,71,0.00,CLR,,0.00,WeatherDisplay:10.37,2013-02-20 13:22:00,
2013-02-20 08:27:00,18.3,10.2,30.16,West,270,4.7,15.0,70,0.00,CLR,,0.00,WeatherDisplay:10.37,2013-02-20 13:27:00,
2013-02-20 08:32:00,18.5,10.3,30.16,West,270,6.4,11.5,70,0.00,CLR,,0.00,WeatherDisplay:10.37,2013-02-20 13:32:00,
2013-02-20 08:37:00,18.5,10.0,30.16,NW,315,5.7,10.4,69,0.00,CLR,,0.00,WeatherDisplay:10.37,2013-02-20 13:37:00,
2013-02-20 08:42:00,18.5,10.3,30.16,West,270,8.8,12.7,70,0.00,CLR,,0.00,WeatherDisplay:10.37,2013-02-20 13:42:00,
2013-02-20 08:47:00,18.5,10.7,30.16,NW,315,7.4,11.5,71,0.00,CLR,,0.00,WeatherDisplay:10.37,2013-02-20 13:47:00,
2013-02-20 08:52:00,18.5,11.0,30.16,NE,45,2.8,8.1,72,0.00,CLR,,0.00,WeatherDisplay:10.37,2013-02-20 13:52:00,
2013-02-20 08:57:00,18.5,11.0,30.16,NE,45,6.8,10.4,72,0.00,CLR,,0.00,WeatherDisplay:10.37,2013-02-20 13:57:00,
2013-02-20 09:02:00,18.7,11.5,30.16,NE,45,11.7,20.7,73,0.00,CLR,,0.00,WeatherDisplay:10.37,2013-02-20 14:02:00,
2013-02-20 09:07:00,18.7,11.5,30.16,NE,45,4.0,6.9,73,0.00,CLR,,0.00,WeatherDisplay:10.37,2013-02-20 14:07:00,
2013-02-20 09:12:00,18.7,11.5,30.15,NE,45,6.8,16.1,73,0.00,CLR,,0.00,WeatherDisplay:10.37,2013-02-20 14:12:00,
2013-02-20 09:17:00,18.9,11.6,30.15,NE,45,5.7,9.2,73,0.00,CLR,,0.00,WeatherDisplay:10.37,2013-02-20 14:17:00,
2013-02-20 09:22:00,18.9,11.6,30.15,NE,45,8.8,15.0,73,0.00,CLR,,0.00,WeatherDisplay:10.37,2013-02-20 14:22:00,
2013-02-20 09:27:00,19.0,11.8,30.15,NE,45,4.8,13.8,73,0.00,CLR,,0.00,WeatherDisplay:10.37,2013-02-20 14:27:00,
2013-02-20 09:32:00,19.4,13.4,30.15,North,0,5.7,10.4,77,0.00,CLR,,0.00,WeatherDisplay:10.37,2013-02-20 14:32:00,
2013-02-20 09:37:00,19.6,13.2,30.15,North,0,5.7,10.4,76,0.00,CLR,,0.00,WeatherDisplay:10.37,2013-02-20 14:37:00,
2013-02-20 09:42:00,19.9,13.3,30.14,North,0,7.7,11.5,75,0.00,CLR,,0.00,WeatherDisplay:10.37,2013-02-20 14:42:00,
2013-02-20 09:47:00,20.1,12.5,30.14,North,0,5.7,11.7,72,0.00,CLR,,0.00,WeatherDisplay:10.37,2013-02-20 14:47:00,
2013-02-20 09:52:00,20.1,12.2,30.15,North,0,4.0,15.0,71,0.00,CLR,,0.00,WeatherDisplay:10.37,2013-02-20 14:52:00,
2013-02-20 09:57:00,20.3,12.4,30.14,NW,315,4.0,6.9,71,0.00,CLR,,0.00,WeatherDisplay:10.37,2013-02-20 14:57:00,
2013-02-20 10:02:00,20.1,12.2,30.15,West,270,8.1,12.7,71,0.00,CLR,,0.00,WeatherDisplay:10.37,2013-02-20 15:02:00,
2013-02-20 10:07:00,20.1,12.5,30.16,SSW,202,4.7,9.2,72,0.00,CLR,,0.00,WeatherDisplay:10.37,2013-02-20 15:07:00,
2013-02-20 10:12:00,20.1,13.2,30.16,West,270,2.4,9.2,74,0.00,CLR,,0.00,WeatherDisplay:10.37,2013-02-20 15:12:00,
2013-02-20 10:17:00,20.3,13.6,30.16,SW,225,5.7,10.4,75,0.00,CLR,,0.00,WeatherDisplay:10.37,2013-02-20 15:17:00,
2013-02-20 10:22:00,20.3,13.6,30.17,West,270,8.1,11.5,75,0.00,CLR,,0.00,WeatherDisplay:10.37,2013-02-20 15:22:00,
2013-02-20 10:27:00,20.3,13.9,30.17,NW,315,11.4,12.7,76,0.00,CLR,,0.00,WeatherDisplay:10.37,2013-02-20 15:27:00,
2013-02-20 10:32:00,20.5,14.1,30.17,West,270,4.7,11.5,76,0.00,CLR,,0.00,WeatherDisplay:10.37,2013-02-20 15:32:00,
2013-02-20 10:37:00,20.5,14.1,30.17,West,270,2.4,5.8,76,0.00,CLR,,0.00,WeatherDisplay:10.37,2013-02-20 15:37:00,
2013-02-20 10:42:00,20.5,14.4,30.18,West,270,4.0,8.1,77,0.00,CLR,,0.00,WeatherDisplay:10.37,2013-02-20 15:42:00,
2013-02-20 10:47:00,20.7,14.6,30.19,West,270,3.3,5.8,77,0.00,CLR,,0.00,WeatherDisplay:10.37,2013-02-20 15:47:00,
2013-02-20 10:52:00,20.8,15.1,30.19,SW,225,2.4,6.9,78,0.00,CLR,,0.00,WeatherDisplay:10.37,2013-02-20 15:52:00,
2013-02-20 10:57:00,21.2,15.1,30.19,SW,225,4.0,6.9,77,0.00,CLR,,0.00,WeatherDisplay:10.37,2013-02-20 15:57:00,
2013-02-20 11:02:00,21.7,15.3,30.19,NE,45,4.8,9.2,76,0.00,CLR,,0.00,WeatherDisplay:10.37,2013-02-20 16:02:00,
2013-02-20 11:07:00,21.9,15.2,30.20,NE,45,6.8,16.1,75,0.00,CLR,,0.00,WeatherDisplay:10.37,2013-02-20 16:07:00,
2013-02-20 11:12:00,22.1,14.4,30.20,North,0,7.7,13.8,72,0.00,CLR,,0.00,WeatherDisplay:10.37,2013-02-20 16:12:00,
2013-02-20 11:17:00,21.9,13.3,30.21,North,0,8.8,10.4,69,0.00,CLR,,0.00,WeatherDisplay:10.37,2013-02-20 16:17:00,
2013-02-20 11:22:00,21.9,13.3,30.22,North,0,7.7,15.0,69,0.00,CLR,,0.00,WeatherDisplay:10.37,2013-02-20 16:22:00,
2013-02-20 11:27:00,21.9,13.3,30.22,North,0,5.7,11.5,69,0.00,CLR,,0.00,WeatherDisplay:10.37,2013-02-20 16:27:00,
2013-02-20 11:32:00,21.7,13.5,30.23,North,0,4.8,8.1,70,0.00,CLR,,0.00,WeatherDisplay:10.37,2013-02-20 16:32:00,
2013-02-20 11:37:00,21.9,14.0,30.23,North,0,4.0,11.5,71,0.00,CLR,,0.00,WeatherDisplay:10.37,2013-02-20 16:37:00,
2013-02-20 11:42:00,22.3,14.3,30.24,North,0,4.0,13.8,71,0.00,CLR,,0.00,WeatherDisplay:10.37,2013-02-20 16:42:00,
2013-02-20 11:47:00,22.1,14.1,30.25,North,0,4.8,16.1,71,0.00,CLR,,0.00,WeatherDisplay:10.37,2013-02-20 16:47:00,
2013-02-20 11:52:00,21.9,14.0,30.25,North,0,5.7,6.9,71,0.00,CLR,,0.00,WeatherDisplay:10.37,2013-02-20 16:52:00,
2013-02-20 11:57:00,21.9,14.3,30.26,North,0,7.7,12.7,72,0.00,CLR,,0.00,WeatherDisplay:10.37,2013-02-20 16:57:00,
2013-02-20 12:02:00,22.1,14.4,30.26,North,0,10.5,18.4,72,0.00,CLR,,0.00,WeatherDisplay:10.37,2013-02-20 17:02:00,
2013-02-20 12:07:00,22.1,14.4,30.26,West,270,4.7,9.2,72,0.00,CLR,,0.00,WeatherDisplay:10.37,2013-02-20 17:07:00,
2013-02-20 12:12:00,22.3,14.9,30.27,NW,315,1.7,4.6,73,0.00,CLR,,0.00,WeatherDisplay:10.37,2013-02-20 17:12:00,
2013-02-20 12:17:00,22.5,15.1,30.27,NW,315,4.7,9.2,73,0.00,CLR,,0.00,WeatherDisplay:10.37,2013-02-20 17:17:00,
2013-02-20 12:22:00,22.5,15.4,30.27,West,270,4.7,10.4,74,0.00,CLR,,0.00,WeatherDisplay:10.37,2013-02-20 17:22:00,
2013-02-20 12:27:00,22.6,15.6,30.27,West,270,4.0,6.9,74,0.00,CLR,,0.00,WeatherDisplay:10.37,2013-02-20 17:27:00,
2013-02-20 12:32:00,23.0,15.6,30.27,West,270,6.4,9.2,73,0.00,CLR,,0.00,WeatherDisplay:10.37,2013-02-20 17:32:00,
2013-02-20 12:37:00,23.2,15.5,30.28,East,90,6.8,16.1,72,0.00,CLR,,0.00,WeatherDisplay:10.37,2013-02-20 17:37:00,
2013-02-20 12:42:00,23.2,14.8,30.28,North,0,6.8,18.4,70,0.00,CLR,,0.00,WeatherDisplay:10.37,2013-02-20 17:42:00,
2013-02-20 12:47:00,23.4,14.7,30.28,West,270,5.7,9.2,69,0.00,CLR,,0.00,WeatherDisplay:10.37,2013-02-20 17:47:00,
2013-02-20 12:52:00,23.5,14.5,30.28,West,270,6.4,13.8,68,0.00,CLR,,0.00,WeatherDisplay:10.37,2013-02-20 17:52:00,
2013-02-20 12:57:00,23.4,14.7,30.29,West,270,3.3,6.9,69,0.00,CLR,,0.00,WeatherDisplay:10.37,2013-02-20 17:57:00,
2013-02-20 13:02:00,23.4,15.0,30.28,SW,225,4.7,8.1,70,0.00,CLR,,0.00,WeatherDisplay:10.37,2013-02-20 18:02:00,
2013-02-20 13:07:00,23.4,15.3,30.29,SW,225,5.7,12.7,71,0.00,CLR,,0.00,WeatherDisplay:10.37,2013-02-20 18:07:00,
2013-02-20 13:12:00,23.2,15.5,30.29,WSW,248,8.1,13.8,72,0.00,CLR,,0.00,WeatherDisplay:10.37,2013-02-20 18:12:00,
2013-02-20 13:17:00,23.2,15.5,30.29,South,180,5.7,10.4,72,0.00,CLR,,0.00,WeatherDisplay:10.37,2013-02-20 18:17:00,
2013-02-20 13:22:00,23.0,15.3,30.29,East,90,5.7,9.2,72,0.00,CLR,,0.00,WeatherDisplay:10.37,2013-02-20 18:22:00,
2013-02-20 13:27:00,23.0,15.6,30.29,NE,45,7.7,15.0,73,0.00,CLR,,0.00,WeatherDisplay:10.37,2013-02-20 18:27:00,
2013-02-20 13:32:00,23.0,15.6,30.29,NE,45,5.7,13.8,73,0.00,CLR,,0.00,WeatherDisplay:10.37,2013-02-20 18:32:00,
2013-02-20 13:37:00,23.0,15.6,30.28,North,0,9.7,15.0,73,0.00,CLR,,0.00,WeatherDisplay:10.37,2013-02-20 18:37:00,
2013-02-20 13:42:00,23.0,15.6,30.28,North,0,13.7,13.7,73,0.00,CLR,,0.00,WeatherDisplay:10.37,2013-02-20 18:42:00,
2013-02-20 13:47:00,23.0,15.6,30.27,North,0,5.7,12.7,73,0.00,CLR,,0.00,WeatherDisplay:10.37,2013-02-20 18:47:00,
2013-02-20 13:52:00,23.0,15.6,30.26,North,0,4.8,9.2,73,0.00,CLR,,0.00,WeatherDisplay:10.37,2013-02-20 18:52:00,
2013-02-20 13:57:00,23.0,15.6,30.25,North,0,5.7,15.0,73,0.00,CLR,,0.00,WeatherDisplay:10.37,2013-02-20 18:57:00,
2013-02-20 14:02:00,23.0,15.6,30.25,NNE,22,9.7,15.0,73,0.00,CLR,,0.00,WeatherDisplay:10.37,2013-02-20 19:02:00,
2013-02-20 14:07:00,23.0,15.0,30.25,West,270,3.3,13.8,71,0.00,CLR,,0.00,WeatherDisplay:10.37,2013-02-20 19:07:00,
2013-02-20 14:12:00,23.0,15.0,30.24,West,270,10.4,10.4,71,0.00,CLR,,0.00,WeatherDisplay:10.37,2013-02-20 19:12:00,
2013-02-20 14:17:00,23.0,14.7,30.24,West,270,8.1,12.8,70,0.00,CLR,,0.00,WeatherDisplay:10.37,2013-02-20 19:17:00,
2013-02-20 14:22:00,23.0,14.3,30.25,SW,225,7.4,9.2,69,0.00,CLR,,0.00,WeatherDisplay:10.37,2013-02-20 19:22:00,
2013-02-20 14:27:00,23.0,14.3,30.25,SSW,202,4.7,11.5,69,0.00,CLR,,0.00,WeatherDisplay:10.37,2013-02-20 19:27:00,
2013-02-20 14:32:00,22.8,14.8,30.25,SW,225,4.0,5.8,71,0.00,CLR,,0.00,WeatherDisplay:10.37,2013-02-20 19:32:00,
2013-02-20 14:37:00,23.0,15.0,30.25,South,180,7.4,15.0,71,0.00,CLR,,0.00,WeatherDisplay:10.37,2013-02-20 19:37:00,
2013-02-20 14:42:00,23.0,15.3,30.26,South,180,4.7,10.4,72,0.00,CLR,,0.00,WeatherDisplay:10.37,2013-02-20 19:42:00,
2013-02-20 14:47:00,23.0,15.0,30.26,South,180,4.0,9.2,71,0.00,CLR,,0.00,WeatherDisplay:10.37,2013-02-20 19:47:00,
2013-02-20 14:52:00,23.2,14.8,30.26,South,180,8.8,12.7,70,0.00,CLR,,0.00,WeatherDisplay:10.37,2013-02-20 19:52:00,
2013-02-20 14:57:00,23.0,15.0,30.26,South,180,8.1,8.1,71,0.00,CLR,,0.00,WeatherDisplay:10.37,2013-02-20 19:57:00,
2013-02-20 15:02:00,23.0,15.3,30.27,South,180,3.3,5.8,72,0.00,CLR,,0.00,WeatherDisplay:10.37,2013-02-20 20:02:00,
2013-02-20 15:07:00,23.0,15.6,30.28,North,0,7.7,12.7,73,0.00,CLR,,0.00,WeatherDisplay:10.37,2013-02-20 20:07:00,
2013-02-20 15:12:00,22.8,16.1,30.28,North,0,10.5,20.7,75,0.00,CLR,,0.00,WeatherDisplay:10.37,2013-02-20 20:12:00,
2013-02-20 15:17:00,22.6,15.6,30.28,North,0,4.8,21.9,74,0.00,CLR,,0.00,WeatherDisplay:10.37,2013-02-20 20:17:00,
2013-02-20 15:22:00,23.0,15.3,30.28,North,0,4.0,9.2,72,0.00,CLR,,0.00,WeatherDisplay:10.37,2013-02-20 20:22:00,
2013-02-20 15:27:00,23.2,15.5,30.28,North,0,5.7,15.0,72,0.00,CLR,,0.00,WeatherDisplay:10.37,2013-02-20 20:27:00,
2013-02-20 15:32:00,23.2,14.8,30.28,NW,315,7.4,12.7,70,0.00,CLR,,0.00,WeatherDisplay:10.37,2013-02-20 20:32:00,
2013-02-20 15:37:00,23.2,14.5,30.28,North,0,4.8,10.4,69,0.00,CLR,,0.00,WeatherDisplay:10.37,2013-02-20 20:37:00,
2013-02-20 15:42:00,23.2,14.2,30.28,West,270,8.1,11.5,68,0.00,CLR,,0.00,WeatherDisplay:10.37,2013-02-20 20:42:00,
2013-02-20 15:47:00,23.0,14.3,30.29,SSW,202,3.3,6.9,69,0.00,CLR,,0.00,WeatherDisplay:10.37,2013-02-20 20:47:00,
2013-02-20 15:52:00,22.8,15.8,30.29,NNE,22,7.7,15.0,74,0.00,CLR,,0.00,WeatherDisplay:10.37,2013-02-20 20:52:00,
2013-02-20 15:57:00,22.6,15.9,30.29,NNE,22,5.7,15.0,75,0.00,CLR,,0.00,WeatherDisplay:10.37,2013-02-20 20:57:00,
2013-02-20 16:02:00,22.6,16.2,30.29,NNE,22,8.8,15.0,76,0.00,CLR,,0.00,WeatherDisplay:10.37,2013-02-20 21:02:00,
2013-02-20 16:07:00,22.6,16.5,30.29,North,0,7.7,13.8,77,0.00,CLR,,0.00,WeatherDisplay:10.37,2013-02-20 21:07:00,
2013-02-20 16:26:00,22.6,16.5,30.29,North,0,0.0,19.6,77,0.00,CLR,,0.00,WeatherDisplay:10.37,2013-02-20 21:26:00,
2013-02-20 16:31:00,22.6,16.8,30.28,NW,315,8.1,8.1,78,0.00,CLR,,0.00,WeatherDisplay:10.37,2013-02-20 21:31:00,
2013-02-20 16:36:00,22.6,16.8,30.27,West,270,7.4,10.4,78,0.00,CLR,,0.00,WeatherDisplay:10.37,2013-02-20 21:36:00,
2013-02-20 16:41:00,22.5,16.6,30.27,WSW,248,5.7,15.0,78,0.00,CLR,,0.00,WeatherDisplay:10.37,2013-02-20 21:41:00,
2013-02-20 16:46:00,22.6,16.8,30.26,South,180,5.7,9.2,78,0.00,CLR,,0.00,WeatherDisplay:10.37,2013-02-20 21:46:00,
2013-02-20 16:51:00,22.6,16.8,30.26,South,180,5.7,16.1,78,0.00,CLR,,0.00,WeatherDisplay:10.37,2013-02-20 21:51:00,
2013-02-20 16:56:00,22.5,16.6,30.26,SW,225,4.0,12.7,78,0.00,CLR,,0.00,WeatherDisplay:10.37,2013-02-20 21:56:00,
2013-02-20 17:01:00,22.5,16.6,30.26,SW,225,5.7,11.4,78,0.00,CLR,,0.00,WeatherDisplay:10.37,2013-02-20 22:01:00,
2013-02-20 17:06:00,22.5,16.6,30.26,West,270,4.7,18.4,78,0.00,CLR,,0.00,WeatherDisplay:10.37,2013-02-20 22:06:00,
2013-02-20 17:11:00,22.5,16.6,30.26,SW,225,8.1,8.1,78,0.00,CLR,,0.00,WeatherDisplay:10.37,2013-02-20 22:11:00,
2013-02-20 17:16:00,22.5,16.9,30.26,SW,225,3.3,12.7,79,0.00,CLR,,0.00,WeatherDisplay:10.37,2013-02-20 22:16:00,
2013-02-20 17:21:00,22.5,16.9,30.26,SW,225,4.0,10.4,79,0.00,CLR,,0.00,WeatherDisplay:10.37,2013-02-20 22:21:00,
2013-02-20 17:26:00,22.6,17.1,30.26,South,180,8.1,12.7,79,0.00,CLR,,0.00,WeatherDisplay:10.37,2013-02-20 22:26:00,
2013-02-20 17:32:00,22.8,17.0,30.26,WSW,248,4.0,6.9,78,0.00,CLR,,0.00,WeatherDisplay:10.37,2013-02-20 22:32:00,
2013-02-20 17:37:00,22.8,16.7,30.27,West,270,3.3,9.2,77,0.00,CLR,,0.00,WeatherDisplay:10.37,2013-02-20 22:37:00,
2013-02-20 17:42:00,23.0,15.9,30.27,West,270,2.4,8.1,74,0.00,CLR,,0.00,WeatherDisplay:10.37,2013-02-20 22:42:00,
2013-02-20 17:47:00,23.0,15.6,30.27,West,270,6.4,12.7,73,0.00,CLR,,0.00,WeatherDisplay:10.37,2013-02-20 22:47:00,
2013-02-20 17:52:00,23.0,15.0,30.27,West,270,4.7,10.4,71,0.00,CLR,,0.00,WeatherDisplay:10.37,2013-02-20 22:52:00,
2013-02-20 17:57:00,23.0,14.7,30.27,SW,225,8.1,9.2,70,0.00,CLR,,0.00,WeatherDisplay:10.37,2013-02-20 22:57:00,
2013-02-20 18:02:00,23.0,14.3,30.28,SW,225,6.4,11.5,69,0.00,CLR,,0.00,WeatherDisplay:10.37,2013-02-20 23:02:00,
2013-02-20 18:07:00,23.0,14.3,30.28,SW,225,8.8,12.7,69,0.00,CLR,,0.00,WeatherDisplay:10.37,2013-02-20 23:07:00,
2013-02-20 18:12:00,23.0,14.0,30.29,West,270,7.4,13.8,68,0.00,CLR,,0.00,WeatherDisplay:10.37,2013-02-20 23:12:00,
2013-02-20 18:17:00,23.0,14.0,30.29,SW,225,4.0,9.2,68,0.00,CLR,,0.00,WeatherDisplay:10.37,2013-02-20 23:17:00,
2013-02-20 18:22:00,23.0,14.0,30.29,SW,225,4.7,10.4,68,0.00,CLR,,0.00,WeatherDisplay:10.37,2013-02-20 23:22:00,
2013-02-20 18:27:00,22.8,14.2,30.28,SW,225,4.7,12.7,69,0.00,CLR,,0.00,WeatherDisplay:10.37,2013-02-20 23:27:00,
2013-02-20 18:32:00,22.8,13.8,30.28,East,90,6.8,17.3,68,0.00,CLR,,0.00,WeatherDisplay:10.37,2013-02-20 23:32:00,
2013-02-20 18:37:00,22.8,13.8,30.29,NE,45,4.0,8.1,68,0.00,CLR,,0.00,WeatherDisplay:10.37,2013-02-20 23:37:00,
2013-02-20 18:42:00,23.0,13.7,30.30,NE,45,2.8,5.8,67,0.00,CLR,,0.00,WeatherDisplay:10.37,2013-02-20 23:42:00,
2013-02-20 18:47:00,23.0,13.7,30.30,NNE,22,2.8,11.5,67,0.00,CLR,,0.00,WeatherDisplay:10.37,2013-02-20 23:47:00,
2013-02-20 18:52:00,23.0,13.7,30.30,NE,45,5.7,15.0,67,0.00,CLR,,0.00,WeatherDisplay:10.37,2013-02-20 23:52:00,
2013-02-20 18:57:00,23.0,13.7,30.30,NE,45,4.0,9.2,67,0.00,CLR,,0.00,WeatherDisplay:10.37,2013-02-20 23:57:00,
2013-02-20 19:02:00,23.0,13.7,30.30,NW,315,4.0,12.7,67,0.00,CLR,,0.00,WeatherDisplay:10.37,2013-02-21 00:02:00,
2013-02-20 19:07:00,23.2,13.8,30.30,West,270,9.7,13.8,67,0.00,CLR,,0.00,WeatherDisplay:10.37,2013-02-21 00:07:00,
2013-02-20 19:12:00,23.2,13.8,30.30,NW,315,3.3,9.2,67,0.00,CLR,,0.00,WeatherDisplay:10.37,2013-02-21 00:12:00,
2013-02-20 19:17:00,23.2,13.8,30.31,NW,315,2.4,9.2,67,0.00,CLR,,0.00,WeatherDisplay:10.37,2013-02-21 00:17:00,
2013-02-20 19:22:00,23.4,14.4,30.31,NW,315,7.4,12.7,68,0.00,CLR,,0.00,WeatherDisplay:10.37,2013-02-21 00:22:00,
2013-02-20 19:27:00,23.4,14.4,30.32,West,270,4.0,6.9,68,0.00,CLR,,0.00,WeatherDisplay:10.37,2013-02-21 00:27:00,
2013-02-20 19:32:00,23.4,14.4,30.32,West,270,7.4,11.5,68,0.00,CLR,,0.00,WeatherDisplay:10.37,2013-02-21 00:32:00,
2013-02-20 19:37:00,23.2,14.2,30.32,West,270,4.7,8.1,68,0.00,CLR,,0.00,WeatherDisplay:10.37,2013-02-21 00:37:00,
2013-02-20 19:42:00,23.4,14.7,30.32,West,270,4.7,9.2,69,0.00,CLR,,0.00,WeatherDisplay:10.37,2013-02-21 00:42:00,
2013-02-20 19:47:00,23.4,14.7,30.33,West,270,4.7,12.7,69,0.00,CLR,,0.00,WeatherDisplay:10.37,2013-02-21 00:47:00,
2013-02-20 19:52:00,23.2,14.8,30.32,West,270,4.7,8.1,70,0.00,CLR,,0.00,WeatherDisplay:10.37,2013-02-21 00:52:00,
2013-02-20 19:57:00,23.2,14.8,30.33,West,270,4.7,9.2,70,0.00,CLR,,0.00,WeatherDisplay:10.37,2013-02-21 00:57:00,
2013-02-20 20:02:00,23.2,14.8,30.33,West,270,5.7,9.2,70,0.00,CLR,,0.00,WeatherDisplay:10.37,2013-02-21 01:02:00,
2013-02-20 20:07:00,23.2,14.8,30.33,West,270,4.0,9.2,70,0.00,CLR,,0.00,WeatherDisplay:10.37,2013-02-21 01:07:00,
2013-02-20 20:12:00,23.2,14.8,30.33,West,270,4.7,6.9,70,0.00,CLR,,0.00,WeatherDisplay:10.37,2013-02-21 01:12:00,
2013-02-20 20:17:00,23.2,14.8,30.33,West,270,4.0,6.9,70,0.00,CLR,,0.00,WeatherDisplay:10.37,2013-02-21 01:17:00,
2013-02-20 20:22:00,23.2,14.8,30.34,West,270,4.0,12.7,70,0.00,CLR,,0.00,WeatherDisplay:10.37,2013-02-21 01:22:00,
2013-02-20 20:27:00,23.2,14.8,30.33,West,270,3.3,9.2,70,0.00,CLR,,0.00,WeatherDisplay:10.37,2013-02-21 01:27:00,
2013-02-20 20:32:00,23.2,14.8,30.34,West,270,2.4,5.8,70,0.00,CLR,,0.00,WeatherDisplay:10.37,2013-02-21 01:32:00,
2013-02-20 20:37:00,23.2,14.8,30.34,West,270,2.4,4.6,70,0.00,CLR,,0.00,WeatherDisplay:10.37,2013-02-21 01:37:00,
2013-02-20 20:42:00,23.2,14.5,30.34,West,270,2.4,5.8,69,0.00,CLR,,0.00,WeatherDisplay:10.37,2013-02-21 01:42:00,
2013-02-20 20:47:00,23.2,14.5,30.34,West,270,1.7,5.8,69,0.00,CLR,,0.00,WeatherDisplay:10.37,2013-02-21 01:47:00,
2013-02-20 20:52:00,23.2,14.5,30.34,West,270,0.0,5.8,69,0.00,CLR,,0.00,WeatherDisplay:10.37,2013-02-21 01:52:00,
2013-02-20 20:57:00,23.2,14.5,30.34,West,270,4.0,9.2,69,0.00,CLR,,0.00,WeatherDisplay:10.37,2013-02-21 01:57:00,
2013-02-20 21:02:00,23.4,14.7,30.34,West,270,3.3,4.6,69,0.00,CLR,,0.00,WeatherDisplay:10.37,2013-02-21 02:02:00,
2013-02-20 21:07:00,23.4,14.7,30.34,West,270,1.7,6.9,69,0.00,CLR,,0.00,WeatherDisplay:10.37,2013-02-21 02:07:00,
2013-02-20 21:12:00,23.4,14.4,30.34,West,270,2.4,6.9,68,0.00,CLR,,0.00,WeatherDisplay:10.37,2013-02-21 02:12:00,
2013-02-20 21:17:00,23.4,14.7,30.34,West,270,4.0,6.9,69,0.00,CLR,,0.00,WeatherDisplay:10.37,2013-02-21 02:17:00,
2013-02-20 21:22:00,23.4,14.7,30.34,West,270,1.7,6.9,69,0.00,CLR,,0.00,WeatherDisplay:10.37,2013-02-21 02:22:00,
2013-02-20 21:27:00,23.4,14.7,30.34,West,270,4.7,9.2,69,0.00,CLR,,0.00,WeatherDisplay:10.37,2013-02-21 02:27:00,
2013-02-20 21:32:00,23.4,14.7,30.34,West,270,2.4,5.8,69,0.00,CLR,,0.00,WeatherDisplay:10.37,2013-02-21 02:32:00,
2013-02-20 21:37:00,23.4,15.0,30.34,West,270,2.4,4.6,70,0.00,CLR,,0.00,WeatherDisplay:10.37,2013-02-21 02:37:00,
2013-02-20 21:42:00,23.5,15.2,30.34,West,270,1.7,4.6,70,0.00,CLR,,0.00,WeatherDisplay:10.37,2013-02-21 02:42:00,
2013-02-20 21:47:00,23.5,15.2,30.34,West,270,0.7,1.1,70,0.00,CLR,,0.00,WeatherDisplay:10.37,2013-02-21 02:47:00,
2013-02-20 21:52:00,23.7,15.4,30.34,West,270,4.0,5.8,70,0.00,CLR,,0.00,WeatherDisplay:10.37,2013-02-21 02:52:00,
2013-02-20 21:57:00,23.7,15.4,30.34,West,270,1.7,6.9,70,0.00,CLR,,0.00,WeatherDisplay:10.37,2013-02-21 02:57:00,
2013-02-20 22:02:00,23.7,15.7,30.34,West,270,2.4,6.9,71,0.00,CLR,,0.00,WeatherDisplay:10.37,2013-02-21 03:02:00,
2013-02-20 22:07:00,23.7,15.7,30.34,West,270,0.7,3.5,71,0.00,CLR,,0.00,WeatherDisplay:10.37,2013-02-21 03:07:00,
2013-02-20 22:12:00,23.7,15.7,30.34,West,270,0.7,2.3,71,0.00,CLR,,0.00,WeatherDisplay:10.37,2013-02-21 03:12:00,
2013-02-20 22:17:00,23.9,15.9,30.34,West,270,1.7,6.9,71,0.00,CLR,,0.00,WeatherDisplay:10.37,2013-02-21 03:17:00,
2013-02-20 22:22:00,23.9,15.9,30.34,West,270,1.7,3.5,71,0.00,CLR,,0.00,WeatherDisplay:10.37,2013-02-21 03:22:00,
2013-02-20 22:27:00,23.9,15.9,30.34,West,270,2.4,6.9,71,0.00,CLR,,0.00,WeatherDisplay:10.37,2013-02-21 03:27:00,
2013-02-20 22:32:00,23.9,15.9,30.34,West,270,2.4,4.6,71,0.00,CLR,,0.00,WeatherDisplay:10.37,2013-02-21 03:32:00,
2013-02-20 22:37:00,23.9,15.9,30.35,West,270,2.4,4.6,71,0.00,CLR,,0.00,WeatherDisplay:10.37,2013-02-21 03:37:00,
2013-02-20 22:42:00,24.3,16.2,30.35,West,270,3.3,4.6,71,0.00,CLR,,0.00,WeatherDisplay:10.37,2013-02-21 03:42:00,
2013-02-20 22:47:00,24.3,15.9,30.35,West,270,1.7,4.6,70,0.00,CLR,,0.00,WeatherDisplay:10.37,2013-02-21 03:47:00,
2013-02-20 22:52:00,24.3,15.9,30.35,West,270,1.7,3.5,70,0.00,CLR,,0.00,WeatherDisplay:10.37,2013-02-21 03:52:00,
2013-02-20 22:57:00,24.4,16.1,30.35,West,270,0.7,4.6,70,0.00,CLR,,0.00,WeatherDisplay:10.37,2013-02-21 03:57:00,
2013-02-20 23:02:00,24.4,16.1,30.36,West,270,4.0,4.6,70,0.00,CLR,,0.00,WeatherDisplay:10.37,2013-02-21 04:02:00,
2013-02-20 23:07:00,24.4,16.1,30.35,West,270,0.0,4.6,70,0.00,CLR,,0.00,WeatherDisplay:10.37,2013-02-21 04:07:00,
2013-02-20 23:12:00,24.6,16.2,30.36,West,270,0.0,1.1,70,0.00,CLR,,0.00,WeatherDisplay:10.37,2013-02-21 04:12:00,
2013-02-20 23:17:00,24.6,16.2,30.36,West,270,1.7,6.9,70,0.00,CLR,,0.00,WeatherDisplay:10.37,2013-02-21 04:17:00,
2013-02-20 23:22:00,24.6,15.9,30.36,West,270,0.7,4.6,69,0.00,CLR,,0.00,WeatherDisplay:10.37,2013-02-21 04:22:00,
2013-02-20 23:27:00,24.8,15.7,30.36,West,270,3.3,3.3,68,0.00,CLR,,0.00,WeatherDisplay:10.37,2013-02-21 04:27:00,
2013-02-20 23:32:00,24.8,15.7,30.36,West,270,2.4,4.6,68,0.00,CLR,,0.00,WeatherDisplay:10.37,2013-02-21 04:32:00,
2013-02-20 23:37:00,25.0,15.6,30.36,West,270,0.7,9.2,67,0.00,CLR,,0.00,WeatherDisplay:10.37,2013-02-21 04:37:00,
2013-02-20 23:42:00,25.0,15.6,30.36,West,270,2.4,4.6,67,0.00,CLR,,0.00,WeatherDisplay:10.37,2013-02-21 04:42:00,
2013-02-20 23:47:00,25.0,15.6,30.37,West,270,2.4,6.9,67,0.00,CLR,,0.00,WeatherDisplay:10.37,2013-02-21 04:47:00,
2013-02-20 23:52:00,25.2,15.4,30.37,West,270,2.4,3.5,66,0.00,CLR,,0.00,WeatherDisplay:10.37,2013-02-21 04:52:00,
2013-02-20 23:57:00,25.2,15.4,30.37,West,270,1.7,4.6,66,0.00,CLR,,0.00,WeatherDisplay:10.37,2013-02-21 04:57:00,